createdAt,value
2019-02-18T00:00:54.698Z,83.07
2019-02-18T00:03:21.572Z,83.79
2019-02-18T00:05:48.430Z,84.36
2019-02-18T00:08:15.301Z,85.52
2019-02-18T00:10:42.143Z,86.57
2019-02-18T00:13:09.025Z,86.81
2019-02-18T00:15:35.883Z,88.06
2019-02-18T00:18:02.775Z,87.55
2019-02-18T00:20:29.642Z,87.31
2019-02-18T00:22:56.511Z,86.26
2019-02-18T00:25:23.374Z,84.90
2019-02-18T00:27:50.255Z,84.57
2019-02-18T00:30:17.122Z,84.56
2019-02-18T00:32:44.006Z,84.79
2019-02-18T00:35:10.858Z,84.60
2019-02-18T00:37:37.718Z,84.88
2019-02-18T00:40:04.742Z,82.29
2019-02-18T00:42:31.610Z,83.97
2019-02-18T00:44:58.478Z,84.14
2019-02-18T00:47:25.354Z,82.21
2019-02-18T00:49:52.214Z,83.51
2019-02-18T00:52:19.106Z,83.17
2019-02-18T00:54:45.954Z,81.81
2019-02-18T00:57:12.844Z,83.26
2019-02-18T00:59:39.704Z,82.66
2019-02-18T01:02:06.587Z,83.50
2019-02-18T01:04:33.433Z,82.05
2019-02-18T01:07:00.329Z,83.28
2019-02-18T01:09:27.347Z,83.32
2019-02-18T01:11:54.218Z,84.18
2019-02-18T01:14:21.068Z,84.53
2019-02-18T01:16:47.913Z,82.33
2019-02-18T01:19:14.782Z,84.06
2019-02-18T01:21:41.634Z,84.23
2019-02-18T01:24:08.505Z,83.90
2019-02-18T01:26:35.359Z,84.39
2019-02-18T01:29:02.231Z,82.67
2019-02-18T01:31:29.090Z,84.62
2019-02-18T01:33:55.967Z,82.13
2019-02-18T01:36:23.212Z,83.30
2019-02-18T01:38:49.691Z,83.78
2019-02-18T01:41:16.551Z,82.19
2019-02-18T01:43:43.414Z,82.94
2019-02-18T01:46:10.262Z,83.72
2019-02-18T01:48:37.130Z,84.26
2019-02-18T01:51:03.999Z,85.48
2019-02-18T01:53:30.870Z,86.19
2019-02-18T01:55:57.728Z,84.65
2019-02-18T01:58:24.586Z,82.59
2019-02-18T02:00:51.455Z,83.79
2019-02-18T02:03:18.324Z,84.46
2019-02-18T02:05:45.169Z,85.63
2019-02-18T02:08:12.022Z,83.58
2019-02-18T02:10:38.876Z,84.15
2019-02-18T02:13:17.379Z,84.24
2019-02-18T02:15:44.222Z,82.24
2019-02-18T02:18:11.103Z,83.46
2019-02-18T02:20:37.962Z,84.14
2019-02-18T02:23:04.851Z,84.85
2019-02-18T02:25:31.706Z,82.68
2019-02-18T02:27:58.605Z,83.45
2019-02-18T02:30:25.460Z,82.40
2019-02-18T02:32:52.336Z,84.61
2019-02-18T02:35:19.193Z,83.90
2019-02-18T02:37:46.033Z,82.30
2019-02-18T02:40:12.904Z,86.59
2019-02-18T02:42:39.751Z,86.59
2019-02-18T02:45:06.696Z,87.99
2019-02-18T02:47:33.559Z,85.04
2019-02-18T02:50:00.443Z,83.84
2019-02-18T02:52:27.296Z,84.39
2019-02-18T02:54:54.154Z,83.68
2019-02-18T02:57:21.023Z,84.27
2019-02-18T02:59:47.882Z,84.12
2019-02-18T03:02:14.739Z,85.07
2019-02-18T03:04:41.608Z,83.21
2019-02-18T03:07:08.456Z,81.59
2019-02-18T03:09:35.342Z,84.09
2019-02-18T03:12:02.186Z,82.81
2019-02-18T03:14:29.060Z,81.01
2019-02-18T03:16:55.903Z,83.18
2019-02-18T03:19:22.766Z,82.52
2019-02-18T03:21:49.622Z,83.72
2019-02-18T03:24:16.474Z,82.21
2019-02-18T03:26:43.326Z,81.11
2019-02-18T03:29:23.218Z,84.99
2019-02-18T03:31:50.060Z,82.88
2019-02-18T03:34:23.559Z,84.46
2019-02-18T03:36:50.411Z,82.64
2019-02-18T03:39:17.278Z,85.14
2019-02-18T03:41:44.158Z,84.25
2019-02-18T03:44:11.070Z,83.44
2019-02-18T03:46:37.919Z,82.48
2019-02-18T03:49:04.822Z,83.70
2019-02-18T03:51:31.683Z,82.13
2019-02-18T03:53:58.553Z,82.03
2019-02-18T03:56:25.400Z,84.82
2019-02-18T03:58:52.286Z,84.33
2019-02-18T04:01:19.134Z,84.32
2019-02-18T04:03:46.023Z,85.09
2019-02-18T04:06:12.883Z,83.15
2019-02-18T04:08:42.815Z,84.74
2019-02-18T04:11:06.594Z,83.82
2019-02-18T04:13:33.462Z,82.75
2019-02-18T04:16:00.350Z,83.94
2019-02-18T04:18:27.211Z,82.76
2019-02-18T04:20:54.078Z,83.29
2019-02-18T04:23:20.911Z,83.09
2019-02-18T04:25:47.780Z,81.93
2019-02-18T04:28:14.642Z,83.94
2019-02-18T04:30:41.542Z,82.08
2019-02-18T04:33:08.401Z,81.92
2019-02-18T04:35:35.286Z,83.40
2019-02-18T04:38:02.158Z,84.96
2019-02-18T04:40:29.015Z,84.13
2019-02-18T04:42:55.869Z,83.97
2019-02-18T04:45:22.762Z,85.16
2019-02-18T04:47:49.655Z,83.65
2019-02-18T04:50:16.515Z,85.20
2019-02-18T04:52:43.383Z,84.48
2019-02-18T04:55:10.227Z,85.13
2019-02-18T04:57:37.108Z,83.12
2019-02-18T05:00:04.570Z,84.80
2019-02-18T05:02:31.440Z,84.41
2019-02-18T05:04:58.287Z,85.29
2019-02-18T05:07:25.173Z,83.51
2019-02-18T05:09:52.040Z,84.57
2019-02-18T05:12:18.918Z,83.73
2019-02-18T05:14:45.792Z,83.76
2019-02-18T05:17:12.674Z,85.22
2019-02-18T05:19:39.561Z,83.14
2019-02-18T05:22:06.446Z,82.95
2019-02-18T05:24:33.383Z,85.59
2019-02-18T05:27:00.428Z,83.99
2019-02-18T05:29:27.293Z,82.59
2019-02-18T05:31:54.252Z,83.82
2019-02-18T05:34:21.115Z,83.00
2019-02-18T05:36:47.995Z,82.56
2019-02-18T05:39:18.201Z,84.77
2019-02-18T05:41:41.731Z,83.23
2019-02-18T05:44:08.612Z,81.76
2019-02-18T05:46:35.494Z,81.37
2019-02-18T05:49:02.379Z,84.04
2019-02-18T05:51:29.286Z,84.35
2019-02-18T05:53:56.264Z,82.39
2019-02-18T05:56:23.122Z,81.42
2019-02-18T05:58:50.010Z,83.23
2019-02-18T06:01:17.187Z,82.72
2019-02-18T06:03:44.063Z,81.61
2019-02-18T06:06:10.918Z,83.68
2019-02-18T06:08:37.794Z,81.92
2019-02-18T06:11:04.651Z,83.58
2019-02-18T06:13:31.547Z,84.22
2019-02-18T06:15:58.419Z,83.52
2019-02-18T06:18:25.314Z,87.74
2019-02-18T06:20:52.190Z,87.34
2019-02-18T06:23:19.080Z,89.18
2019-02-18T06:25:45.952Z,87.96
2019-02-18T06:28:12.843Z,86.42
2019-02-18T06:30:39.723Z,88.72
2019-02-18T06:33:06.593Z,86.27
2019-02-18T06:35:33.459Z,86.37
2019-02-18T06:38:00.391Z,88.32
2019-02-18T06:40:27.313Z,86.07
2019-02-18T06:42:54.211Z,84.97
2019-02-18T06:45:40.677Z,87.07
2019-02-18T06:48:11.188Z,85.54
2019-02-18T06:50:38.043Z,84.10
2019-02-18T06:53:04.939Z,86.03
2019-02-18T06:55:31.825Z,84.68
2019-02-18T06:58:02.773Z,82.59
2019-02-18T07:00:52.161Z,84.25
2019-02-18T07:03:24.452Z,83.04
2019-02-18T07:05:56.573Z,84.27
2019-02-18T07:08:44.059Z,82.89
2019-02-18T07:11:17.490Z,83.04
2019-02-18T07:13:44.495Z,84.97
2019-02-18T07:16:11.419Z,83.19
2019-02-18T07:18:38.298Z,84.99
2019-02-18T07:21:05.155Z,83.26
2019-02-18T07:23:32.042Z,84.51
2019-02-18T07:25:58.914Z,83.10
2019-02-18T07:28:25.789Z,84.32
2019-02-18T07:30:52.631Z,83.19
2019-02-18T07:33:19.498Z,85.41
2019-02-18T07:35:46.360Z,84.97
2019-02-18T07:38:13.259Z,85.69
2019-02-18T07:40:40.122Z,84.49
2019-02-18T07:43:07.019Z,85.49
2019-02-18T07:45:33.894Z,84.19
2019-02-18T07:48:00.803Z,85.60
2019-02-18T07:50:27.686Z,84.36
2019-02-18T07:52:54.585Z,84.50
2019-02-18T07:55:21.472Z,87.94
2019-02-18T07:57:48.383Z,86.36
2019-02-18T08:00:15.252Z,87.13
2019-02-18T08:02:42.134Z,87.24
2019-02-18T08:05:09.027Z,85.44
2019-02-18T08:07:35.870Z,84.96
2019-02-18T08:10:11.826Z,87.40
2019-02-18T08:12:29.616Z,86.78
2019-02-18T08:14:56.499Z,84.57
2019-02-18T08:17:23.364Z,86.19
2019-02-18T08:19:50.248Z,84.48
2019-02-18T08:22:17.119Z,87.33
2019-02-18T08:24:44.015Z,88.97
2019-02-18T08:27:10.870Z,86.47
2019-02-18T08:29:37.738Z,88.25
2019-02-18T08:32:04.602Z,86.41
2019-02-18T08:34:31.475Z,85.57
2019-02-18T08:36:58.335Z,87.86
2019-02-18T08:39:25.226Z,88.08
2019-02-18T08:41:52.068Z,87.90
2019-02-18T08:44:18.951Z,87.81
2019-02-18T08:46:45.804Z,86.34
2019-02-18T08:49:12.680Z,85.47
2019-02-18T08:51:39.557Z,84.11
2019-02-18T08:54:06.443Z,82.28
2019-02-18T08:56:33.310Z,80.09
2019-02-18T08:59:00.194Z,76.72
2019-02-18T09:01:27.111Z,76.09
2019-02-18T09:03:53.991Z,76.59
2019-02-18T09:06:20.846Z,76.59
2019-02-18T09:08:47.743Z,76.04
2019-02-18T09:11:14.620Z,75.55
2019-02-18T09:13:41.506Z,73.88
2019-02-18T09:16:08.386Z,73.17
2019-02-18T09:18:35.274Z,73.59
2019-02-18T09:21:02.130Z,71.60
2019-02-18T09:23:36.509Z,72.05
2019-02-18T09:26:04.267Z,70.40
2019-02-18T09:28:31.147Z,68.90
2019-02-18T09:30:58.004Z,68.13
2019-02-18T09:33:24.870Z,67.26
2019-02-18T09:35:51.762Z,66.54
2019-02-18T09:38:25.013Z,66.33
2019-02-18T09:40:50.551Z,65.63
2019-02-18T09:43:12.388Z,65.07
2019-02-18T09:45:39.230Z,64.84
2019-02-18T09:48:06.115Z,63.91
2019-02-18T09:50:32.959Z,62.57
2019-02-18T09:53:02.335Z,61.41
2019-02-18T09:55:26.708Z,60.73
2019-02-18T09:57:53.560Z,60.59
2019-02-18T10:00:20.429Z,59.19
2019-02-18T10:02:49.430Z,58.82
2019-02-18T10:05:16.266Z,58.37
2019-02-18T10:07:43.107Z,57.42
2019-02-18T10:10:09.967Z,56.27
2019-02-18T10:12:36.823Z,56.82
2019-02-18T10:15:03.811Z,56.07
2019-02-18T10:17:30.663Z,56.50
2019-02-18T10:19:57.539Z,55.25
2019-02-18T10:22:24.370Z,54.83
2019-02-18T10:24:51.278Z,55.44
2019-02-18T10:27:18.082Z,53.75
2019-02-18T10:29:44.962Z,52.05
2019-02-18T10:32:11.791Z,53.89
2019-02-18T10:34:38.643Z,53.15
2019-02-18T10:37:05.499Z,51.65
2019-02-18T10:39:32.372Z,51.37
2019-02-18T10:41:59.221Z,51.47
2019-02-18T10:44:26.214Z,51.74
2019-02-18T10:46:53.058Z,51.67
2019-02-18T10:49:21.287Z,50.24
2019-02-18T10:51:46.882Z,50.86
2019-02-18T10:54:13.738Z,50.39
2019-02-18T10:56:40.571Z,49.64
2019-02-18T10:59:07.442Z,50.59
2019-02-18T11:01:34.284Z,51.67
2019-02-18T11:04:01.144Z,51.20
2019-02-18T11:06:27.983Z,50.22
2019-02-18T11:08:54.827Z,50.48
2019-02-18T11:11:21.695Z,51.10
2019-02-18T11:13:48.539Z,50.99
2019-02-18T11:16:15.430Z,49.71
2019-02-18T11:18:42.327Z,48.85
2019-02-18T11:21:09.300Z,49.14
2019-02-18T11:23:36.158Z,50.21
2019-02-18T11:26:03.030Z,49.82
2019-02-18T11:28:30.135Z,50.87
2019-02-18T11:30:57.014Z,50.26
2019-02-18T11:33:23.866Z,49.30
2019-02-18T11:35:50.720Z,49.63
2019-02-18T11:38:17.573Z,49.49
2019-02-18T11:40:44.430Z,51.04
2019-02-18T11:43:11.294Z,49.58
2019-02-18T11:45:38.147Z,49.33
2019-02-18T11:48:04.986Z,49.52
2019-02-18T11:50:31.863Z,49.82
2019-02-18T11:52:58.722Z,50.56
2019-02-18T11:55:25.571Z,50.94
2019-02-18T11:57:52.412Z,48.85
2019-02-18T12:00:19.276Z,49.92
2019-02-18T12:02:46.121Z,49.25
2019-02-18T12:05:13.024Z,47.54
2019-02-18T12:07:39.879Z,47.15
2019-02-18T12:10:07.579Z,47.64
2019-02-18T12:12:34.431Z,46.52
2019-02-18T12:15:01.303Z,46.63
2019-02-18T12:17:28.776Z,46.62
2019-02-18T12:19:55.643Z,45.99
2019-02-18T12:22:22.489Z,46.49
2019-02-18T12:24:49.323Z,45.77
2019-02-18T12:27:16.222Z,45.66
2019-02-18T12:29:43.094Z,45.65
2019-02-18T12:32:09.959Z,46.84
2019-02-18T12:34:36.815Z,47.10
2019-02-18T12:37:03.682Z,47.57
2019-02-18T12:39:30.544Z,44.08
2019-02-18T12:41:57.411Z,44.66
2019-02-18T12:44:24.259Z,43.92
2019-02-18T12:46:51.212Z,44.50
2019-02-18T12:49:18.110Z,44.46
2019-02-18T12:51:45.003Z,44.08
2019-02-18T12:54:11.838Z,43.75
2019-02-18T12:56:38.795Z,43.52
2019-02-18T12:59:05.655Z,42.74
2019-02-18T13:01:32.536Z,41.99
2019-02-18T13:03:59.389Z,43.04
2019-02-18T13:06:26.248Z,43.26
2019-02-18T13:08:53.088Z,43.02
2019-02-18T13:11:19.951Z,43.24
2019-02-18T13:13:46.802Z,43.47
2019-02-18T13:16:13.671Z,43.16
2019-02-18T13:18:40.523Z,44.20
2019-02-18T13:21:07.410Z,44.49
2019-02-18T13:23:34.258Z,44.45
2019-02-18T13:26:01.135Z,43.78
2019-02-18T13:28:27.988Z,43.91
2019-02-18T13:30:54.859Z,42.39
2019-02-18T13:33:21.695Z,42.97
2019-02-18T13:35:48.844Z,43.09
2019-02-18T13:38:15.406Z,44.11
2019-02-18T13:40:42.279Z,43.93
2019-02-18T13:43:09.119Z,43.61
2019-02-18T13:45:35.966Z,43.88
2019-02-18T13:48:02.855Z,43.47
2019-02-18T13:50:29.707Z,42.43
2019-02-18T13:52:56.663Z,41.49
2019-02-18T13:55:23.514Z,43.01
2019-02-18T13:57:50.383Z,42.66
2019-02-18T14:00:18.562Z,41.76
2019-02-18T14:02:45.986Z,42.04
2019-02-18T14:05:12.839Z,41.90
2019-02-18T14:07:39.719Z,41.42
2019-02-18T14:10:06.595Z,40.00
2019-02-18T14:12:33.471Z,40.88
2019-02-18T14:15:00.333Z,41.34
2019-02-18T14:17:27.247Z,41.62
2019-02-18T14:19:54.066Z,40.59
2019-02-18T14:22:20.950Z,40.90
2019-02-18T14:24:47.879Z,40.97
2019-02-18T14:27:14.842Z,39.55
2019-02-18T14:29:41.779Z,39.34
2019-02-18T14:32:08.752Z,39.03
2019-02-18T14:34:35.602Z,39.79
2019-02-18T14:37:02.514Z,38.71
2019-02-18T14:39:29.523Z,38.41
2019-02-18T14:41:56.359Z,37.99
2019-02-18T14:44:23.346Z,38.42
2019-02-18T14:46:50.239Z,38.73
2019-02-18T14:49:17.090Z,39.61
2019-02-18T14:51:43.959Z,38.54
2019-02-18T14:54:10.826Z,40.38
2019-02-18T14:56:37.766Z,39.76
2019-02-18T14:59:04.795Z,39.24
2019-02-18T15:01:31.679Z,39.99
2019-02-18T15:03:58.555Z,40.48
2019-02-18T15:06:25.431Z,40.59
2019-02-18T15:08:52.295Z,40.09
2019-02-18T15:11:19.170Z,40.75
2019-02-18T15:13:46.042Z,39.23
2019-02-18T15:16:12.975Z,39.11
2019-02-18T15:18:39.835Z,40.49
2019-02-18T15:21:06.723Z,39.80
2019-02-18T15:23:33.576Z,40.93
2019-02-18T15:26:00.439Z,41.42
2019-02-18T15:28:27.322Z,41.80
2019-02-18T15:30:54.226Z,42.07
2019-02-18T15:33:21.103Z,42.35
2019-02-18T15:35:48.022Z,42.55
2019-02-18T15:38:14.891Z,42.35
2019-02-18T15:40:41.752Z,42.61
2019-02-18T15:43:08.627Z,40.67
2019-02-18T15:45:35.519Z,40.25
2019-02-18T15:48:02.403Z,41.41
2019-02-18T15:50:29.249Z,41.46
2019-02-18T15:52:56.122Z,43.22
2019-02-18T15:55:22.974Z,44.09
2019-02-18T15:57:49.834Z,45.11
2019-02-18T16:00:19.160Z,46.30
2019-02-18T16:02:46.009Z,45.92
2019-02-18T16:05:12.908Z,47.03
2019-02-18T16:07:39.871Z,46.58
2019-02-18T16:10:07.160Z,47.78
2019-02-18T16:12:34.109Z,47.89
2019-02-18T16:15:00.996Z,50.18
2019-02-18T16:17:27.955Z,49.66
2019-02-18T16:19:54.887Z,52.34
2019-02-18T16:22:21.854Z,52.48
2019-02-18T16:24:48.700Z,53.16
2019-02-18T16:27:15.563Z,50.13
2019-02-18T16:29:42.500Z,51.56
2019-02-18T16:32:09.354Z,51.06
2019-02-18T16:34:36.247Z,52.74
2019-02-18T16:37:03.220Z,52.62
2019-02-18T16:39:30.071Z,53.41
2019-02-18T16:41:56.927Z,53.74
2019-02-18T16:44:23.819Z,52.52
2019-02-18T16:46:50.685Z,53.80
2019-02-18T16:49:17.517Z,53.17
2019-02-18T16:51:44.384Z,53.69
2019-02-18T16:54:11.303Z,53.28
2019-02-18T16:56:38.187Z,51.64
2019-02-18T16:59:05.056Z,54.66
2019-02-18T17:01:31.885Z,54.18
2019-02-18T17:03:58.742Z,53.87
2019-02-18T17:06:25.600Z,54.90
2019-02-18T17:08:52.519Z,54.96
2019-02-18T17:11:19.424Z,56.67
2019-02-18T17:13:46.512Z,56.19
2019-02-18T17:16:13.666Z,57.88
2019-02-18T17:18:40.536Z,56.05
2019-02-18T17:21:07.465Z,56.33
2019-02-18T17:23:34.395Z,56.14
2019-02-18T17:26:01.242Z,55.43
2019-02-18T17:28:28.119Z,55.47
2019-02-18T17:30:55.061Z,54.95
2019-02-18T17:33:21.941Z,54.86
2019-02-18T17:35:48.799Z,55.00
2019-02-18T17:38:15.736Z,56.67
2019-02-18T17:40:42.575Z,58.59
2019-02-18T17:43:16.310Z,59.17
2019-02-18T17:45:36.422Z,58.99
2019-02-18T17:48:03.307Z,58.00
2019-02-18T17:50:30.256Z,58.78
2019-02-18T17:52:58.214Z,60.04
2019-02-18T17:55:23.979Z,60.11
2019-02-18T17:57:50.844Z,60.44
2019-02-18T18:00:18.075Z,61.71
2019-02-18T18:02:44.965Z,61.40
2019-02-18T18:05:11.810Z,62.95
2019-02-18T18:10:28.818Z,64.21
2019-02-18T18:12:55.710Z,63.24
2019-02-18T18:15:22.573Z,62.27
2019-02-18T18:17:49.686Z,62.38
2019-02-18T18:20:16.534Z,61.78
2019-02-18T18:22:43.411Z,61.83
2019-02-18T18:25:10.318Z,61.20
2019-02-18T18:27:37.193Z,60.63
2019-02-18T18:30:04.239Z,61.04
2019-02-18T18:32:31.382Z,60.98
2019-02-18T18:34:58.279Z,62.22
2019-02-18T18:37:25.126Z,61.23
2019-02-18T18:39:52.006Z,61.40
2019-02-18T18:42:18.870Z,61.58
2019-02-18T18:44:46.483Z,61.56
2019-02-18T18:47:13.379Z,61.29
2019-02-18T18:49:40.371Z,61.28
2019-02-18T18:52:07.282Z,61.77
2019-02-18T18:54:34.239Z,61.34
2019-02-18T18:57:01.112Z,61.64
2019-02-18T18:59:27.984Z,62.32
2019-02-18T19:01:54.877Z,62.86
2019-02-18T19:04:21.746Z,62.56
2019-02-18T19:06:48.654Z,63.08
2019-02-18T19:09:15.539Z,64.01
2019-02-18T19:11:42.403Z,63.96
2019-02-18T19:14:09.319Z,64.45
2019-02-18T19:16:36.208Z,63.56
2019-02-18T19:19:03.070Z,64.59
2019-02-18T19:21:29.961Z,65.09
2019-02-18T19:23:56.832Z,64.70
2019-02-18T19:26:23.707Z,65.54
2019-02-18T19:28:50.579Z,65.18
2019-02-18T19:31:17.465Z,65.71
2019-02-18T19:33:44.460Z,65.71
2019-02-18T19:36:11.444Z,65.58
2019-02-18T19:38:38.363Z,66.61
2019-02-18T19:41:05.247Z,65.73
2019-02-18T19:43:32.129Z,65.78
2019-02-18T19:45:59.060Z,66.20
2019-02-18T19:48:25.919Z,65.42
2019-02-18T19:50:52.784Z,66.51
2019-02-18T19:53:19.743Z,66.35
2019-02-18T19:55:46.634Z,67.14
2019-02-18T19:58:13.491Z,67.10
2019-02-18T20:00:40.386Z,65.96
2019-02-18T20:03:07.395Z,66.95
2019-02-18T20:05:37.810Z,67.56
2019-02-18T20:08:04.691Z,66.29
2019-02-18T20:10:31.648Z,68.20
2019-02-18T20:12:58.514Z,67.94
2019-02-18T20:15:25.401Z,67.59
2019-02-18T20:17:52.330Z,68.00
2019-02-18T20:20:19.210Z,68.50
2019-02-18T20:22:46.128Z,66.74
2019-02-18T20:25:13.010Z,67.92
2019-02-18T20:27:39.894Z,68.57
2019-02-18T20:30:07.302Z,69.00
2019-02-18T20:32:34.183Z,69.04
2019-02-18T20:35:01.124Z,68.71
2019-02-18T20:37:27.950Z,68.40
2019-02-18T20:39:54.832Z,69.95
2019-02-18T20:42:21.779Z,70.24
2019-02-18T20:44:48.693Z,68.49
2019-02-18T20:47:15.559Z,69.65
2019-02-18T20:49:42.483Z,69.19
2019-02-18T20:52:09.348Z,70.61
2019-02-18T20:54:36.330Z,70.94
2019-02-18T20:57:03.212Z,71.68
2019-02-18T20:59:30.102Z,71.49
2019-02-18T21:01:56.973Z,71.88
2019-02-18T21:04:23.847Z,70.84
2019-02-18T21:06:50.751Z,72.29
2019-02-18T21:09:17.598Z,71.96
2019-02-18T21:11:44.492Z,72.63
2019-02-18T21:14:16.071Z,72.76
2019-02-18T21:16:38.234Z,69.84
2019-02-18T21:19:05.122Z,70.07
2019-02-18T21:21:32.002Z,70.99
2019-02-18T21:23:58.974Z,73.34
2019-02-18T21:26:25.879Z,74.88
2019-02-18T21:28:52.754Z,74.29
2019-02-18T21:31:21.079Z,72.22
2019-02-18T21:33:47.946Z,75.21
2019-02-18T21:36:14.840Z,74.51
2019-02-18T21:38:41.692Z,74.79
2019-02-18T21:41:08.571Z,74.04
2019-02-18T21:43:35.434Z,75.37
2019-02-18T21:46:02.415Z,78.45
2019-02-18T21:48:29.277Z,80.98
2019-02-18T21:50:56.242Z,79.97
2019-02-18T21:53:23.140Z,78.30
2019-02-18T21:55:49.990Z,79.54
2019-02-18T21:58:16.855Z,79.66
2019-02-18T22:00:43.809Z,79.94
2019-02-18T22:03:10.655Z,77.47
2019-02-18T22:05:37.562Z,78.78
2019-02-18T22:08:04.431Z,79.85
2019-02-18T22:10:31.302Z,78.75
2019-02-18T22:12:58.211Z,76.30
2019-02-18T22:15:25.098Z,73.67
2019-02-18T22:17:51.968Z,70.57
2019-02-18T22:20:18.869Z,74.39
2019-02-18T22:22:45.758Z,77.78
2019-02-18T22:25:12.651Z,77.87
2019-02-18T22:27:39.559Z,77.99
2019-02-18T22:30:08.091Z,77.14
2019-02-18T22:32:34.994Z,76.85
2019-02-18T22:35:01.885Z,76.34
2019-02-18T22:37:28.768Z,77.49
2019-02-18T22:39:55.627Z,77.65
2019-02-18T22:42:22.519Z,77.08
2019-02-18T22:44:49.377Z,76.52
2019-02-18T22:47:16.289Z,75.16
2019-02-18T22:49:43.163Z,74.15
2019-02-18T22:52:10.075Z,73.53
2019-02-18T22:54:36.954Z,73.36
2019-02-18T22:57:03.843Z,73.35
2019-02-18T22:59:30.702Z,73.93
2019-02-18T23:01:57.605Z,72.57
2019-02-18T23:04:24.502Z,71.60
2019-02-18T23:06:52.690Z,72.91
2019-02-18T23:09:19.748Z,73.37
2019-02-18T23:11:46.630Z,73.84
2019-02-18T23:14:13.506Z,73.20
2019-02-18T23:16:40.398Z,73.16
2019-02-18T23:19:07.278Z,72.39
2019-02-18T23:21:34.162Z,73.06
2019-02-18T23:24:01.047Z,73.53
2019-02-18T23:26:27.927Z,73.56
2019-02-18T23:28:54.840Z,73.34
2019-02-18T23:31:21.710Z,74.29
2019-02-18T23:33:48.592Z,74.01
2019-02-18T23:36:15.483Z,74.77
2019-02-18T23:38:42.357Z,73.95
2019-02-18T23:41:09.274Z,74.84
2019-02-18T23:43:36.141Z,73.66
2019-02-18T23:46:03.038Z,73.93
2019-02-18T23:48:29.906Z,74.12
2019-02-18T23:50:56.773Z,72.22
2019-02-18T23:53:23.638Z,71.68
2019-02-18T23:55:50.524Z,70.72
2019-02-18T23:58:17.382Z,72.49
